Time;durP1;ratioP1;P1;durP2;ratioP2;P2;SDS_P1;SDS_P2;PMS_P1;PMS_P2;Temp;Humidity;BMP_temperature;BMP_pressure;BME280_temperature;BME280_humidity;BME280_pressure;Samples;Min_cycle;Max_cycle;Signal;HPM_P1;HPM_P2
2024/01/29 00:02:15;;;;;;;12.93;8.40;;;;;;;2.71;53.92;95406.69;5070511;28;20298;-68
2024/01/29 00:04:41;;;;;;;13.93;8.75;;;;;;;2.58;54.18;95388.50;5070481;28;20028;-68
2024/01/29 00:07:06;;;;;;;13.55;8.88;;;;;;;2.43;54.37;95392.34;5070600;28;20024;-67
2024/01/29 00:09:32;;;;;;;11.73;8.88;;;;;;;2.42;54.05;95384.69;5070947;28;20081;-67
2024/01/29 00:11:57;;;;;;;12.60;9.02;;;;;;;2.16;55.09;95403.44;5070384;28;20116;-68
2024/01/29 00:14:23;;;;;;;13.90;9.27;;;;;;;2.40;54.68;95400.66;5070520;28;20407;-68
2024/01/29 00:16:48;;;;;;;11.98;8.80;;;;;;;2.44;54.55;95388.69;5070954;28;20037;-68
2024/01/29 00:19:14;;;;;;;15.40;10.02;;;;;;;2.59;54.11;95398.00;5071171;28;20036;-68
2024/01/29 00:21:40;;;;;;;14.50;9.07;;;;;;;2.62;54.03;95413.28;5072883;28;20119;-67
2024/01/29 00:24:05;;;;;;;13.40;8.68;;;;;;;2.63;53.88;95420.16;5074481;28;20531;-67
2024/01/29 00:26:31;;;;;;;10.73;7.63;;;;;;;2.43;54.20;95394.97;5074243;28;20032;-67
2024/01/29 00:28:57;;;;;;;14.73;8.00;;;;;;;2.35;54.50;95408.41;5074462;28;20028;-68
2024/01/29 00:31:23;;;;;;;10.35;6.95;;;;;;;2.46;54.49;95409.47;5074407;28;20032;-68
2024/01/29 00:33:48;;;;;;;15.98;8.90;;;;;;;2.45;54.06;95406.03;5074104;28;20491;-68
2024/01/29 00:36:17;;;;;;;14.18;9.95;;;;;;;2.37;54.30;95400.31;5074469;28;20028;-67
2024/01/29 00:38:43;;;;;;;13.10;8.10;;;;;;;2.17;54.96;95408.44;5073984;28;20043;-68
2024/01/29 00:41:08;;;;;;;11.00;8.20;;;;;;;2.08;55.29;95412.41;5072489;28;20041;-68
2024/01/29 00:43:34;;;;;;;11.70;8.18;;;;;;;2.32;55.05;95410.69;5073881;28;20047;-67
2024/01/29 00:45:59;;;;;;;15.18;9.90;;;;;;;2.44;54.47;95407.09;5073755;28;20025;-67
2024/01/29 00:48:25;;;;;;;10.07;7.32;;;;;;;2.40;54.50;95421.66;5074412;28;20024;-67
2024/01/29 00:50:52;;;;;;;14.60;8.45;;;;;;;2.16;54.78;95398.97;5073621;28;20048;-68
2024/01/29 00:53:17;;;;;;;11.30;8.15;;;;;;;2.06;54.97;95381.13;5073469;28;20044;-68
2024/01/29 00:55:45;;;;;;;9.73;7.90;;;;;;;2.36;54.67;95415.25;5073659;28;20041;-68
2024/01/29 00:58:11;;;;;;;11.30;8.15;;;;;;;2.12;55.25;95407.50;5073873;28;20040;-68
2024/01/29 01:00:38;;;;;;;10.38;7.45;;;;;;;2.32;55.10;95418.56;5074156;28;20377;-65
2024/01/29 01:03:05;;;;;;;10.85;7.90;;;;;;;2.24;55.22;95424.94;5073741;28;20037;-67
2024/01/29 01:05:31;;;;;;;18.88;9.70;;;;;;;2.34;55.05;95419.16;5073360;28;20035;-67
2024/01/29 01:07:56;;;;;;;12.85;7.53;;;;;;;2.21;55.00;95416.66;5073479;28;20119;-68
2024/01/29 01:10:22;;;;;;;12.90;8.57;;;;;;;2.12;55.13;95392.56;5072287;28;20039;-67
2024/01/29 01:12:47;;;;;;;12.55;8.50;;;;;;;2.33;54.81;95407.03;5073410;28;20081;-67
2024/01/29 01:15:13;;;;;;;10.43;8.05;;;;;;;2.38;54.50;95418.47;5073887;28;20032;-68
2024/01/29 01:17:39;;;;;;;13.27;8.20;;;;;;;2.29;55.17;95427.69;5073580;28;20566;-68
2024/01/29 01:20:06;;;;;;;11.35;8.02;;;;;;;2.33;54.98;95405.22;5073157;28;20029;-68
2024/01/29 01:22:32;;;;;;;10.48;7.00;;;;;;;2.35;54.90;95426.78;5073457;28;20028;-67
2024/01/29 01:24:57;;;;;;;13.63;7.93;;;;;;;2.21;54.99;95411.41;5073668;28;20411;-68
2024/01/29 01:27:22;;;;;;;13.45;8.13;;;;;;;2.23;55.07;95404.94;5073437;28;20020;-67
2024/01/29 01:29:48;;;;;;;10.98;8.77;;;;;;;2.28;55.26;95426.09;5072850;28;20036;-68
2024/01/29 01:32:13;;;;;;;13.35;8.27;;;;;;;2.36;54.65;95407.38;5071842;28;20071;-68
2024/01/29 01:34:39;;;;;;;12.13;8.18;;;;;;;2.48;54.51;95417.94;5072652;28;20057;-68
2024/01/29 01:37:04;;;;;;;15.95;8.85;;;;;;;2.20;55.21;95421.16;5073244;28;20503;-68
2024/01/29 01:39:31;;;;;;;11.63;8.57;;;;;;;2.51;54.80;95423.53;5073044;28;20449;-68
2024/01/29 01:41:56;;;;;;;10.70;7.22;;;;;;;2.56;54.17;95403.66;5071334;28;20499;-67
2024/01/29 01:44:21;;;;;;;13.85;9.10;;;;;;;2.39;54.56;95393.03;5072700;28;20077;-68
2024/01/29 01:46:47;;;;;;;13.13;9.18;;;;;;;2.53;54.63;95405.75;5072883;28;20081;-67
2024/01/29 01:49:14;;;;;;;10.77;8.20;;;;;;;2.51;54.65;95412.22;5072959;28;20040;-67
2024/01/29 01:51:40;;;;;;;12.68;7.95;;;;;;;2.43;54.52;95407.31;5072550;28;20040;-68
2024/01/29 01:54:08;;;;;;;10.05;7.72;;;;;;;2.44;54.33;95398.41;5073140;28;20048;-68
2024/01/29 01:56:35;;;;;;;12.75;7.60;;;;;;;2.57;54.47;95413.16;5072002;28;20079;-67
2024/01/29 01:59:03;;;;;;;13.43;7.82;;;;;;;2.60;54.34;95416.13;5072080;28;20051;-68
2024/01/29 02:01:30;;;;;;;10.02;7.65;;;;;;;2.48;53.97;95397.72;5071948;28;20035;-68
2024/01/29 02:03:56;;;;;;;15.13;8.60;;;;;;;2.62;54.19;95415.91;5071709;28;20027;-67
2024/01/29 02:06:22;;;;;;;12.80;8.45;;;;;;;2.74;54.06;95419.41;5072398;28;20395;-67
2024/01/29 02:08:47;;;;;;;11.73;8.43;;;;;;;2.49;54.13;95409.84;5071475;28;20450;-67
2024/01/29 02:11:13;;;;;;;11.10;8.48;;;;;;;2.50;54.29;95411.41;5071908;28;20032;-67
2024/01/29 02:13:39;;;;;;;13.23;7.00;;;;;;;2.67;53.57;95405.53;5072380;28;20032;-67
2024/01/29 02:16:04;;;;;;;9.93;7.88;;;;;;;2.49;53.87;95414.28;5070847;28;20098;-68
2024/01/29 02:18:30;;;;;;;10.93;8.52;;;;;;;2.47;54.30;95404.00;5072829;28;20021;-67
2024/01/29 02:20:56;;;;;;;16.02;7.93;;;;;;;2.41;54.15;95407.50;5072284;28;20037;-68
2024/01/29 02:23:21;;;;;;;11.50;8.23;;;;;;;2.49;54.25;95416.91;5072117;28;20147;-68
2024/01/29 02:25:47;;;;;;;18.85;10.73;;;;;;;2.61;53.80;95409.06;5072132;28;20086;-68
2024/01/29 02:28:12;;;;;;;9.75;7.13;;;;;;;2.57;53.68;95389.53;5071811;28;20503;-68
2024/01/29 02:30:38;;;;;;;13.00;9.02;;;;;;;2.61;53.59;95414.31;5071867;28;20031;-68
2024/01/29 02:33:03;;;;;;;12.30;8.10;;;;;;;2.29;54.46;95400.63;5072456;28;20029;-68
2024/01/29 02:35:29;;;;;;;13.52;8.18;;;;;;;2.58;53.81;95414.78;5071753;28;20043;-68
2024/01/29 02:37:54;;;;;;;13.30;8.50;;;;;;;2.42;54.40;95424.88;5071716;28;20564;-67
2024/01/29 02:40:20;;;;;;;11.85;7.55;;;;;;;2.38;54.53;95423.72;5071762;28;20453;-68
2024/01/29 02:42:45;;;;;;;12.55;8.15;;;;;;;2.42;54.40;95406.50;5071685;28;20531;-68
2024/01/29 02:45:11;;;;;;;9.60;7.88;;;;;;;2.46;54.15;95410.28;5072320;28;20016;-68
2024/01/29 02:47:36;;;;;;;12.43;8.38;;;;;;;2.56;54.08;95428.13;5071767;28;20499;-68
2024/01/29 02:50:05;;;;;;;11.48;8.10;;;;;;;2.47;54.14;95416.34;5071634;28;20115;-68
2024/01/29 02:52:30;;;;;;;12.27;8.25;;;;;;;2.56;53.97;95424.69;5071521;28;20044;-67
2024/01/29 02:54:55;;;;;;;12.95;7.78;;;;;;;2.79;53.63;95428.19;5071497;28;20020;-67
2024/01/29 02:57:23;;;;;;;11.40;9.10;;;;;;;2.75;53.65;95411.25;5071833;28;20024;-67
2024/01/29 02:59:53;;;;;;;13.88;8.25;;;;;;;2.69;53.50;95409.56;5071276;28;20120;-68
2024/01/29 03:02:18;;;;;;;10.93;8.05;;;;;;;2.73;53.33;95421.22;5071260;28;20039;-68
2024/01/29 03:04:44;;;;;;;10.65;7.90;;;;;;;2.74;53.65;95429.91;5071296;28;20029;-68
2024/01/29 03:07:10;;;;;;;12.35;8.00;;;;;;;2.79;53.42;95419.53;5071247;28;20029;-67
2024/01/29 03:09:36;;;;;;;13.57;8.98;;;;;;;2.85;52.81;95413.34;5071942;28;20063;-68
2024/01/29 03:12:02;;;;;;;14.82;8.18;;;;;;;2.84;53.24;95427.53;5071291;28;20036;-67
2024/01/29 03:14:27;;;;;;;11.05;8.23;;;;;;;2.84;53.22;95415.16;5071407;28;20057;-68
2024/01/29 03:16:53;;;;;;;11.80;7.60;;;;;;;2.95;52.83;95414.41;5071074;28;20526;-67
2024/01/29 03:19:20;;;;;;;11.82;8.40;;;;;;;2.93;53.08;95413.03;5071424;28;20553;-68
2024/01/29 03:21:45;;;;;;;15.07;8.00;;;;;;;3.03;52.97;95425.63;5071321;28;20028;-67
2024/01/29 03:24:11;;;;;;;10.10;8.48;;;;;;;2.83;53.00;95403.06;5071601;28;20040;-68
2024/01/29 03:26:36;;;;;;;12.98;8.00;;;;;;;3.03;52.99;95415.91;5071093;28;20036;-68
2024/01/29 03:29:02;;;;;;;11.57;8.55;;;;;;;3.07;52.76;95411.78;5070777;28;20067;-68
2024/01/29 03:31:27;;;;;;;17.55;9.30;;;;;;;3.03;52.46;95405.41;5070934;28;20029;-68
2024/01/29 03:33:53;;;;;;;10.20;8.30;;;;;;;2.94;52.53;95401.47;5071058;28;20020;-68
2024/01/29 03:36:19;;;;;;;13.45;8.45;;;;;;;3.13;52.61;95412.72;5071317;28;20032;-68
2024/01/29 03:38:44;;;;;;;11.82;8.88;;;;;;;3.13;52.40;95410.91;5071091;28;20029;-68
2024/01/29 03:41:10;;;;;;;12.60;8.15;;;;;;;3.05;52.21;95403.31;5070812;28;20126;-67
2024/01/29 03:43:35;;;;;;;15.43;8.68;;;;;;;3.12;52.23;95414.53;5070971;28;20029;-68
2024/01/29 03:46:01;;;;;;;10.75;8.27;;;;;;;3.11;52.16;95410.31;5070902;28;20056;-68
2024/01/29 03:48:26;;;;;;;12.27;9.50;;;;;;;3.18;52.34;95423.34;5071250;28;20074;-67
2024/01/29 03:50:52;;;;;;;12.30;8.52;;;;;;;2.93;52.68;95407.78;5071036;28;20061;-68
2024/01/29 03:53:17;;;;;;;11.52;8.40;;;;;;;2.93;52.77;95416.47;5070965;28;20028;-67
2024/01/29 03:55:43;;;;;;;11.10;8.25;;;;;;;3.03;52.71;95413.28;5073692;28;20463;-67
2024/01/29 03:58:08;;;;;;;14.55;9.43;;;;;;;2.68;53.20;95417.66;5074996;28;20112;-68
2024/01/29 04:00:34;;;;;;;16.25;9.85;;;;;;;2.50;53.56;95408.00;5075635;28;20471;-67
2024/01/29 04:03:02;;;;;;;30.95;12.48;;;;;;;2.76;53.57;95419.94;5074546;28;20029;-68
2024/01/29 04:05:28;;;;;;;15.30;9.18;;;;;;;2.80;53.41;95405.34;5074521;28;20055;-68
2024/01/29 04:07:53;;;;;;;13.18;9.48;;;;;;;2.75;53.40;95407.84;5074902;28;20060;-68
2024/01/29 04:10:18;;;;;;;13.93;9.43;;;;;;;2.79;53.37;95395.88;5074878;28;20526;-68
2024/01/29 04:12:44;;;;;;;13.98;8.85;;;;;;;2.98;53.04;95418.41;5074581;28;20548;-68
2024/01/29 04:15:10;;;;;;;15.10;9.27;;;;;;;3.06;53.12;95409.38;5074814;28;20020;-67
2024/01/29 04:17:35;;;;;;;11.30;8.30;;;;;;;3.24;52.92;95412.72;5074331;28;20048;-68
2024/01/29 04:20:05;;;;;;;13.27;9.65;;;;;;;3.16;52.70;95418.31;5074701;28;20044;-68
2024/01/29 04:22:33;;;;;;;14.77;10.82;;;;;;;3.08;52.92;95423.91;5074292;28;20033;-67
2024/01/29 04:25:00;;;;;;;12.70;9.35;;;;;;;2.66;53.76;95409.19;5074385;28;20056;-68
2024/01/29 04:27:25;;;;;;;10.77;8.90;;;;;;;2.78;53.86;95429.22;5074799;28;20025;-68
2024/01/29 04:29:51;;;;;;;14.85;9.93;;;;;;;2.74;53.71;95416.78;5073931;28;20031;-67
2024/01/29 04:32:16;;;;;;;11.50;9.25;;;;;;;2.56;54.14;95432.56;5073980;28;20179;-68
2024/01/29 04:34:42;;;;;;;18.00;12.23;;;;;;;2.60;54.38;95431.13;5074042;28;20087;-68
2024/01/29 04:37:07;;;;;;;16.23;10.43;;;;;;;2.45;54.49;95427.06;5074027;28;20040;-67
2024/01/29 04:39:33;;;;;;;16.70;11.07;;;;;;;2.14;55.47;95443.03;5074340;28;20446;-68
2024/01/29 04:41:58;;;;;;;19.52;14.95;;;;;;;1.48;57.56;95435.81;5073884;28;20302;-67
2024/01/29 04:44:25;;;;;;;22.40;13.90;;;;;;;1.49;57.85;95416.47;5073726;28;20442;-67
2024/01/29 04:46:50;;;;;;;21.38;13.48;;;;;;;1.78;57.80;95453.50;5074043;28;20041;-68
2024/01/29 04:49:16;;;;;;;16.75;11.52;;;;;;;2.13;57.06;95441.41;5074271;28;20507;-67
2024/01/29 04:51:41;;;;;;;21.52;13.20;;;;;;;2.15;56.56;95446.44;5073479;28;20044;-67
2024/01/29 04:54:06;;;;;;;22.65;14.00;;;;;;;2.18;56.58;95449.44;5073822;28;20025;-68
2024/01/29 04:56:32;;;;;;;20.33;13.90;;;;;;;2.14;56.86;95461.41;5073173;28;20042;-68
2024/01/29 04:58:57;;;;;;;25.83;15.38;;;;;;;1.48;58.51;95464.69;5072446;28;20078;-68
2024/01/29 05:01:23;;;;;;;30.48;18.92;;;;;;;1.09;60.07;95454.53;5073686;28;20025;-67
2024/01/29 05:03:48;;;;;;;32.88;19.45;;;;;;;1.35;59.98;95470.03;5073437;28;20020;-67
2024/01/29 05:06:14;;;;;;;24.65;15.95;;;;;;;0.92;60.94;95466.56;5071408;28;20070;-67
2024/01/29 05:08:39;;;;;;;24.05;16.25;;;;;;;0.56;63.09;95488.94;5072761;28;20032;-68
2024/01/29 05:11:05;;;;;;;22.60;15.25;;;;;;;0.45;63.64;95479.13;5073313;28;20051;-68
2024/01/29 05:13:30;;;;;;;22.33;14.55;;;;;;;0.08;65.02;95472.06;5073189;28;20039;-68
2024/01/29 05:15:56;;;;;;;22.27;16.20;;;;;;;-0.44;67.94;95483.47;5073398;28;20365;-68
2024/01/29 05:18:21;;;;;;;24.45;18.05;;;;;;;-0.21;68.26;95489.84;5073616;28;20108;-68
2024/01/29 05:20:46;;;;;;;25.98;16.02;;;;;;;-0.31;68.50;95486.84;5072868;28;20492;-67
2024/01/29 05:23:12;;;;;;;22.25;15.20;;;;;;;-0.23;67.89;95502.31;5073313;28;20063;-67
2024/01/29 05:25:38;;;;;;;21.20;14.30;;;;;;;-0.40;68.70;95495.13;5072785;28;20028;-68
2024/01/29 05:28:04;;;;;;;24.88;15.30;;;;;;;-0.27;69.08;95493.28;5073328;28;20040;-67
2024/01/29 05:30:29;;;;;;;22.90;13.80;;;;;;;-0.11;67.02;95479.78;5073545;28;20051;-68
2024/01/29 05:32:55;;;;;;;18.73;13.25;;;;;;;-0.29;67.57;95486.66;5072629;28;20060;-68
2024/01/29 05:35:20;;;;;;;18.45;12.35;;;;;;;-0.18;67.78;95494.66;5072686;28;20565;-67
2024/01/29 05:37:46;;;;;;;18.75;12.43;;;;;;;-0.29;67.99;95484.84;5071392;28;20650;-67
2024/01/29 05:40:11;;;;;;;14.93;12.20;;;;;;;-0.37;68.07;95495.50;5068965;28;20082;-67
2024/01/29 05:42:38;;;;;;;22.70;12.82;;;;;;;-0.21;67.69;95489.84;5071615;28;20031;-67
2024/01/29 05:45:04;;;;;;;17.35;10.98;;;;;;;-0.00;66.40;95488.00;5072096;28;20041;-67
2024/01/29 05:47:29;;;;;;;19.02;12.13;;;;;;;-0.10;66.38;95478.78;5071655;28;20081;-68
2024/01/29 05:49:54;;;;;;;18.67;11.63;;;;;;;0.14;65.89;95500.00;5070995;28;20403;-68
2024/01/29 05:52:20;;;;;;;18.40;12.07;;;;;;;0.43;64.80;95494.25;5071284;28;20039;-68
2024/01/29 05:54:45;;;;;;;17.75;11.32;;;;;;;0.58;64.12;95494.78;5071260;28;20016;-68
2024/01/29 05:57:11;;;;;;;17.88;11.25;;;;;;;0.89;62.42;95503.69;5071690;28;20044;-68
2024/01/29 05:59:40;;;;;;;15.82;10.93;;;;;;;1.02;61.62;95487.84;5071685;28;20040;-67
2024/01/29 06:02:05;;;;;;;16.67;10.98;;;;;;;1.04;61.02;95493.66;5071611;28;20043;-68
2024/01/29 06:04:31;;;;;;;16.75;10.40;;;;;;;1.22;60.87;95501.63;5072521;28;20108;-68
2024/01/29 06:06:59;;;;;;;15.90;10.85;;;;;;;1.46;59.87;95495.56;5071845;28;20025;-67
2024/01/29 06:09:25;;;;;;;15.02;10.02;;;;;;;1.68;58.82;95502.00;5072363;28;20024;-67
2024/01/29 06:11:51;;;;;;;16.15;11.43;;;;;;;1.86;58.50;95503.06;5070911;28;20380;-68
2024/01/29 06:14:17;;;;;;;17.98;11.45;;;;;;;1.83;57.93;95508.72;5071947;28;20068;-67
2024/01/29 06:16:45;;;;;;;15.60;9.50;;;;;;;1.89;57.74;95502.66;5071679;28;20112;-67
2024/01/29 06:19:15;;;;;;;17.77;10.90;;;;;;;1.90;57.48;95501.63;5072272;28;20035;-68
2024/01/29 06:21:42;;;;;;;14.10;9.85;;;;;;;2.14;57.08;95511.28;5072244;28;20025;-68
2024/01/29 06:24:08;;;;;;;19.52;10.20;;;;;;;1.93;57.28;95511.69;5072341;28;20100;-67
2024/01/29 06:26:33;;;;;;;13.10;9.63;;;;;;;1.46;58.25;95497.38;5071958;28;20116;-68
2024/01/29 06:28:59;;;;;;;14.75;10.45;;;;;;;1.07;59.93;95514.22;5071779;28;20052;-68
2024/01/29 06:31:24;;;;;;;17.65;13.07;;;;;;;0.79;61.21;95507.53;5072094;28;20036;-67
2024/01/29 06:33:53;;;;;;;23.20;15.30;;;;;;;0.94;60.79;95514.28;5071910;28;20017;-68
2024/01/29 06:36:19;;;;;;;22.70;12.75;;;;;;;1.19;60.64;95526.44;5072426;28;20029;-68
2024/01/29 06:38:45;;;;;;;17.45;11.65;;;;;;;0.68;61.20;95528.38;5070436;28;20043;-67
2024/01/29 06:41:24;;;;;;;16.65;11.20;;;;;;;0.72;61.34;95538.22;5071810;28;20029;-67
2024/01/29 06:43:50;;;;;;;16.80;10.75;;;;;;;0.60;61.97;95542.50;5071284;28;20028;-67
2024/01/29 06:46:16;;;;;;;17.40;11.05;;;;;;;0.59;61.84;95527.81;5071504;28;20033;-68
2024/01/29 06:48:41;;;;;;;14.88;10.25;;;;;;;0.70;61.83;95545.47;5071697;28;20059;-68
2024/01/29 06:51:07;;;;;;;12.80;9.13;;;;;;;0.67;61.47;95535.41;5072283;28;20068;-68
2024/01/29 06:53:34;;;;;;;13.15;9.90;;;;;;;0.68;61.29;95523.94;5069766;28;20616;-67
2024/01/29 06:55:59;;;;;;;15.38;10.18;;;;;;;0.66;61.52;95539.03;5071170;28;20036;-68
2024/01/29 06:58:26;;;;;;;20.15;11.32;;;;;;;0.45;62.43;95531.47;5071829;28;20139;-67
2024/01/29 07:00:54;;;;;;;16.45;10.55;;;;;;;0.92;60.92;95522.38;5071237;28;20428;-67
2024/01/29 07:03:20;;;;;;;16.00;10.65;;;;;;;1.12;60.07;95535.38;5072194;28;20512;-67
2024/01/29 07:05:48;;;;;;;13.50;9.13;;;;;;;1.44;58.53;95542.16;5071308;28;20095;-67
2024/01/29 07:08:14;;;;;;;11.02;9.13;;;;;;;1.66;57.56;95537.38;5070882;28;20036;-68
2024/01/29 07:10:39;;;;;;;12.98;9.07;;;;;;;1.90;56.98;95544.44;5069174;28;20036;-68
2024/01/29 07:13:05;;;;;;;10.65;8.13;;;;;;;1.82;56.75;95530.72;5069222;28;20107;-66
2024/01/29 07:15:31;;;;;;;12.98;8.95;;;;;;;1.50;56.94;95530.84;5069334;28;20051;-66
2024/01/29 07:17:56;;;;;;;11.57;8.68;;;;;;;1.96;55.94;95542.78;5069325;28;20380;-66
2024/01/29 07:20:22;;;;;;;13.90;8.43;;;;;;;1.77;55.64;95533.22;5069145;28;20037;-66
2024/01/29 07:22:47;;;;;;;13.48;9.43;;;;;;;2.02;55.10;95539.25;5069203;28;20080;-66
2024/01/29 07:25:16;;;;;;;14.85;10.35;;;;;;;1.98;54.82;95528.41;5069231;28;20025;-67
2024/01/29 07:27:41;;;;;;;25.38;15.98;;;;;;;2.38;54.35;95539.28;5069710;28;20504;-67
2024/01/29 07:30:07;;;;;;;38.70;28.10;;;;;;;2.28;53.39;95511.91;5068700;28;20060;-66
2024/01/29 07:32:33;;;;;;;16.60;9.82;;;;;;;1.97;54.32;95531.22;5068357;28;20039;-67
2024/01/29 07:35:00;;;;;;;16.13;10.30;;;;;;;1.91;54.30;95535.50;5068903;28;20116;-67
2024/01/29 07:37:27;;;;;;;15.55;9.57;;;;;;;1.65;55.10;95533.94;5068996;28;20048;-67
2024/01/29 07:39:52;;;;;;;13.70;9.88;;;;;;;1.50;55.79;95532.66;5069506;28;20029;-67
2024/01/29 07:42:18;;;;;;;16.45;11.18;;;;;;;1.67;55.58;95547.63;5068082;28;20111;-67
2024/01/29 07:44:43;;;;;;;14.63;10.10;;;;;;;1.41;56.01;95542.59;5069248;28;20504;-67
2024/01/29 07:47:09;;;;;;;13.55;9.77;;;;;;;1.93;55.07;95556.31;5069912;28;20048;-67
2024/01/29 07:49:34;;;;;;;15.05;10.90;;;;;;;2.11;54.28;95552.91;5069247;28;20041;-67
2024/01/29 07:51:59;;;;;;;16.83;10.82;;;;;;;1.77;54.49;95551.56;5070024;28;20504;-67
2024/01/29 07:54:25;;;;;;;16.75;9.65;;;;;;;2.13;54.33;95540.34;5071045;28;20037;-67
2024/01/29 07:56:50;;;;;;;15.07;9.85;;;;;;;2.55;53.67;95538.69;5070729;28;20054;-67
2024/01/29 07:59:16;;;;;;;14.32;9.63;;;;;;;2.66;53.09;95530.03;5070403;28;20052;-67
2024/01/29 08:01:44;;;;;;;19.02;11.15;;;;;;;2.13;53.86;95541.16;5070526;28;20028;-67
2024/01/29 08:04:10;;;;;;;13.32;9.68;;;;;;;2.21;54.00;95533.00;5070305;28;20116;-67
2024/01/29 08:06:35;;;;;;;15.40;9.40;;;;;;;2.52;53.02;95553.03;5070479;28;20104;-67
2024/01/29 08:09:02;;;;;;;14.98;9.68;;;;;;;2.62;52.66;95542.81;5070111;28;20526;-67
2024/01/29 08:11:28;;;;;;;14.27;8.82;;;;;;;2.89;52.33;95546.69;5070335;28;20033;-67
2024/01/29 08:13:53;;;;;;;15.05;9.25;;;;;;;2.18;53.08;95564.94;5068617;28;20449;-67
2024/01/29 08:16:19;;;;;;;16.90;11.00;;;;;;;2.32;53.07;95557.72;5070105;28;20659;-67
2024/01/29 08:18:44;;;;;;;15.82;10.43;;;;;;;1.90;53.24;95573.28;5070622;28;20103;-67
2024/01/29 08:21:10;;;;;;;15.05;9.63;;;;;;;1.95;53.82;95562.16;5071110;28;20052;-67
2024/01/29 08:23:36;;;;;;;15.15;9.68;;;;;;;2.37;52.26;95568.38;5070396;28;20044;-67
2024/01/29 08:38:41;;;;;;;12.25;9.00;;;;;;;2.47;50.56;95590.47;5054035;27;20414;-70
2024/01/29 08:41:06;;;;;;;17.25;9.60;;;;;;;2.40;51.33;95584.47;5048552;28;20052;-71
2024/01/29 08:43:32;;;;;;;14.18;10.15;;;;;;;2.04;51.97;95571.34;5043279;28;20041;-71
2024/01/29 08:45:57;;;;;;;14.40;10.07;;;;;;;2.10;52.79;95583.59;5042530;28;20041;-71
2024/01/29 08:48:23;;;;;;;14.77;9.52;;;;;;;2.01;51.28;95603.28;5049790;28;20522;-71
2024/01/29 08:50:48;;;;;;;17.38;9.80;;;;;;;2.04;51.82;95595.78;5049889;28;20037;-71
2024/01/29 08:53:14;;;;;;;20.95;10.65;;;;;;;1.35;53.03;95593.28;5049589;28;20110;-71
2024/01/29 08:55:39;;;;;;;14.15;8.90;;;;;;;0.99;53.57;95600.94;5049891;28;20052;-71
2024/01/29 08:58:05;;;;;;;19.85;12.10;;;;;;;0.56;53.99;95572.72;5049547;28;20037;-71
2024/01/29 09:00:32;;;;;;;19.77;11.07;;;;;;;0.43;54.86;95601.59;5051912;28;20028;-71
2024/01/29 09:02:57;;;;;;;11.35;8.23;;;;;;;0.22;54.41;95568.63;5040350;28;20046;-71
2024/01/29 09:05:23;;;;;;;13.43;7.85;;;;;;;0.29;55.28;95606.06;5048945;28;20032;-72
2024/01/29 09:07:48;;;;;;;12.23;8.45;;;;;;;0.28;55.27;95604.44;5050229;28;20053;-71
2024/01/29 09:10:14;;;;;;;11.80;7.28;;;;;;;0.02;54.05;95608.91;5050349;28;20306;-71
2024/01/29 09:12:39;;;;;;;15.48;6.72;;;;;;;-0.16;54.45;95604.31;5051023;28;20728;-70
2024/01/29 09:15:06;;;;;;;11.18;6.60;;;;;;;-0.35;54.23;95592.06;5050487;28;20078;-71
2024/01/29 09:17:31;;;;;;;13.63;7.82;;;;;;;-0.14;54.07;95600.47;5051032;28;20044;-71
2024/01/29 09:19:57;;;;;;;10.43;7.65;;;;;;;-0.26;54.41;95583.81;5050431;28;20469;-71
2024/01/29 09:22:23;;;;;;;14.65;7.80;;;;;;;0.16;53.44;95600.84;5047638;28;20055;-72
2024/01/29 09:24:49;;;;;;;12.85;6.97;;;;;;;-0.07;53.11;95575.13;5051248;28;20033;-71
2024/01/29 09:27:14;;;;;;;9.18;6.50;;;;;;;0.18;52.25;95600.63;5050142;28;20329;-71
2024/01/29 09:29:40;;;;;;;15.20;7.97;;;;;;;-0.00;53.81;95595.25;5048719;28;20366;-71
2024/01/29 09:32:07;;;;;;;21.13;10.20;;;;;;;-0.20;54.60;95601.31;5048764;28;20048;-72
2024/01/29 09:34:33;;;;;;;22.42;10.90;;;;;;;-0.26;55.43;95602.09;5051098;28;20036;-71
2024/01/29 09:36:59;;;;;;;16.45;10.13;;;;;;;0.16;54.86;95595.59;5047284;28;20045;-71
2024/01/29 09:39:25;;;;;;;14.40;9.50;;;;;;;0.11;54.29;95571.06;5031066;28;20485;-71
2024/01/29 09:41:52;;;;;;;12.95;7.72;;;;;;;0.31;53.71;95570.00;5036796;28;20041;-71
2024/01/29 09:44:17;;;;;;;11.48;7.43;;;;;;;0.59;53.14;95584.63;5034843;28;20755;-71
2024/01/29 09:46:46;;;;;;;11.30;7.43;;;;;;;0.64;52.86;95582.97;5035627;28;20398;-71
2024/01/29 09:49:12;;;;;;;10.98;7.22;;;;;;;0.56;52.15;95559.63;5036609;28;20048;-70
2024/01/29 09:51:38;;;;;;;15.27;8.23;;;;;;;0.71;51.59;95573.28;5036871;28;20035;-70
2024/01/29 09:54:05;;;;;;;13.20;7.50;;;;;;;0.17;52.26;95550.13;5033723;28;20139;-71
2024/01/29 09:56:30;;;;;;;13.18;7.80;;;;;;;0.43;52.79;95588.50;5034806;28;20041;-71
2024/01/29 09:58:56;;;;;;;14.38;7.53;;;;;;;0.69;52.42;95587.59;5034799;28;20045;-71
2024/01/29 10:01:22;;;;;;;14.32;8.35;;;;;;;0.92;51.85;95579.22;5036962;28;20627;-71
2024/01/29 10:03:49;;;;;;;20.52;8.63;;;;;;;0.70;52.15;95561.19;5033094;28;20075;-71
2024/01/29 10:06:14;;;;;;;13.50;7.65;;;;;;;0.92;51.43;95576.59;5015368;28;20211;-71
2024/01/29 10:08:40;;;;;;;16.20;8.73;;;;;;;0.85;51.47;95562.72;5012691;28;20429;-71
2024/01/29 10:11:07;;;;;;;14.75;7.50;;;;;;;0.65;50.76;95579.34;5019613;28;20048;-71
2024/01/29 10:13:33;;;;;;;11.45;5.88;;;;;;;0.84;50.47;95574.22;5034607;28;20073;-71
2024/01/29 10:15:58;;;;;;;9.65;5.88;;;;;;;1.04;49.44;95582.75;5036070;28;20073;-71
2024/01/29 10:18:24;;;;;;;8.98;5.60;;;;;;;0.82;49.52;95573.63;5035979;28;20107;-71
2024/01/29 10:21:00;;;;;;;7.90;5.55;;;;;;;0.09;50.72;95579.13;5037236;28;20076;-71
2024/01/29 10:23:27;;;;;;;8.40;5.97;;;;;;;0.10;51.10;95577.31;5032194;28;20048;-71
2024/01/29 10:25:56;;;;;;;6.78;4.30;;;;;;;-0.14;51.37;95579.56;5037718;28;20036;-71
2024/01/29 10:28:23;;;;;;;7.53;5.10;;;;;;;-0.11;51.28;95558.25;5037705;28;20041;-70
2024/01/29 10:30:49;;;;;;;8.88;5.28;;;;;;;-0.19;51.47;95574.13;5032862;28;20154;-70
2024/01/29 10:33:14;;;;;;;6.65;4.35;;;;;;;-0.15;51.72;95570.13;5035857;28;20718;-71
2024/01/29 10:35:40;;;;;;;5.60;4.03;;;;;;;-0.17;51.76;95579.16;5036324;28;20040;-71
2024/01/29 10:38:06;;;;;;;71.35;40.40;;;;;;;-0.29;51.55;95576.38;5033960;28;20060;-71
2024/01/29 10:40:33;;;;;;;11.45;6.10;;;;;;;-0.27;51.83;95574.34;5036479;28;20654;-71
2024/01/29 10:43:00;;;;;;;10.13;6.03;;;;;;;-0.46;51.61;95551.63;5036025;28;20040;-71
2024/01/29 10:45:26;;;;;;;8.05;4.80;;;;;;;-0.01;51.18;95562.25;5035575;28;20108;-71
2024/01/29 10:48:09;;;;;;;9.73;5.57;;;;;;;-0.29;51.54;95565.91;5035574;28;20033;-70
2024/01/29 10:50:35;;;;;;;8.15;5.75;;;;;;;-0.29;51.66;95555.47;5040084;28;20091;-70
2024/01/29 10:53:03;;;;;;;11.13;6.28;;;;;;;-0.45;52.03;95561.09;5033009;28;20413;-71
2024/01/29 10:55:30;;;;;;;5.38;4.18;;;;;;;-0.37;51.77;95553.03;5034779;28;20037;-70
2024/01/29 10:58:00;;;;;;;12.10;7.15;;;;;;;-0.58;51.96;95555.88;5036990;28;20572;-70
2024/01/29 11:00:27;;;;;;;17.85;7.25;;;;;;;-0.63;51.82;95558.28;5031681;28;20029;-70
2024/01/29 11:02:54;;;;;;;14.00;9.05;;;;;;;-0.50;52.19;95555.66;5033637;28;20163;-71
2024/01/29 11:05:20;;;;;;;14.63;8.20;;;;;;;-0.22;51.31;95553.63;5032927;28;20851;-71
2024/01/29 11:07:48;;;;;;;6.07;4.18;;;;;;;-0.28;50.75;95556.22;5037020;28;20056;-70
2024/01/29 11:10:16;;;;;;;6.38;5.05;;;;;;;-0.15;50.99;95551.00;5035627;28;20091;-71
2024/01/29 11:12:43;;;;;;;5.15;3.67;;;;;;;-0.05;50.54;95540.13;5033827;28;20032;-71
2024/01/29 11:15:09;;;;;;;3.22;2.92;;;;;;;0.02;49.29;95535.66;5035043;28;20025;-71
2024/01/29 11:17:35;;;;;;;4.20;2.95;;;;;;;-0.03;49.45;95535.47;5036142;28;20041;-71
2024/01/29 11:20:02;;;;;;;4.15;3.22;;;;;;;0.16;49.03;95537.22;5033920;28;20044;-71
2024/01/29 11:22:35;;;;;;;10.07;6.68;;;;;;;0.26;49.58;95521.91;5033505;28;20118;-71
2024/01/29 11:25:06;;;;;;;8.95;4.90;;;;;;;0.30;49.75;95517.88;5032771;28;20099;-70
2024/01/29 11:27:32;;;;;;;5.82;5.13;;;;;;;0.55;49.41;95531.84;5034134;28;20061;-71
2024/01/29 11:29:57;;;;;;;5.75;3.78;;;;;;;0.50;49.21;95533.47;5031836;28;20048;-71
2024/01/29 11:32:23;;;;;;;6.90;4.65;;;;;;;0.59;49.09;95527.81;5033871;28;20056;-70
2024/01/29 11:34:48;;;;;;;10.00;4.60;;;;;;;0.20;49.65;95520.91;5033785;28;20041;-71
2024/01/29 11:37:24;;;;;;;10.50;7.13;;;;;;;0.30;50.14;95536.19;5031045;28;20094;-71
2024/01/29 11:39:50;;;;;;;4.60;3.25;;;;;;;0.46;49.26;95525.25;5032550;28;20043;-70